sensor_id;sensor_type;location;lat;lon;timestamp;pressure;altitude;pressure_sealevel;temperature;humidity
9672;BME280;4874;43.568;27.824;2022-12-08T00:02:17;98905.81;;;7.35;100.00
9672;BME280;4874;43.568;27.824;2022-12-08T00:04:44;98910.94;;;7.47;100.00
9672;BME280;4874;43.568;27.824;2022-12-08T00:07:29;98911.28;;;7.43;100.00
9672;BME280;4874;43.568;27.824;2022-12-08T00:10:15;98910.56;;;7.41;100.00
9672;BME280;4874;43.568;27.824;2022-12-08T00:13:01;98918.72;;;7.49;100.00
9672;BME280;4874;43.568;27.824;2022-12-08T00:15:28;98907.25;;;7.39;100.00
9672;BME280;4874;43.568;27.824;2022-12-08T00:17:55;98927.44;;;7.60;100.00
9672;BME280;4874;43.568;27.824;2022-12-08T00:20:21;98926.88;;;7.46;100.00
9672;BME280;4874;43.568;27.824;2022-12-08T00:22:48;98924.03;;;7.38;100.00
9672;BME280;4874;43.568;27.824;2022-12-08T00:25:15;98938.16;;;7.48;100.00
9672;BME280;4874;43.568;27.824;2022-12-08T00:27:41;98937.09;;;7.39;100.00
9672;BME280;4874;43.568;27.824;2022-12-08T00:30:08;98943.03;;;7.21;100.00
9672;BME280;4874;43.568;27.824;2022-12-08T00:32:36;98938.66;;;7.42;100.00
9672;BME280;4874;43.568;27.824;2022-12-08T00:35:03;98942.25;;;7.41;100.00
9672;BME280;4874;43.568;27.824;2022-12-08T00:37:30;98947.00;;;7.26;100.00
9672;BME280;4874;43.568;27.824;2022-12-08T00:39:57;98946.16;;;7.26;100.00
9672;BME280;4874;43.568;27.824;2022-12-08T00:42:23;98950.69;;;7.35;100.00
9672;BME280;4874;43.568;27.824;2022-12-08T00:44:50;98941.66;;;7.37;100.00
9672;BME280;4874;43.568;27.824;2022-12-08T00:47:17;98944.56;;;7.34;100.00
9672;BME280;4874;43.568;27.824;2022-12-08T00:49:48;98942.13;;;7.42;100.00
9672;BME280;4874;43.568;27.824;2022-12-08T00:52:15;98950.94;;;7.32;100.00
9672;BME280;4874;43.568;27.824;2022-12-08T00:54:42;98950.44;;;7.38;100.00
9672;BME280;4874;43.568;27.824;2022-12-08T00:57:08;98947.94;;;7.36;100.00
9672;BME280;4874;43.568;27.824;2022-12-08T00:59:35;98955.63;;;7.28;100.00
9672;BME280;4874;43.568;27.824;2022-12-08T01:02:02;98944.75;;;7.22;100.00
9672;BME280;4874;43.568;27.824;2022-12-08T01:04:28;98937.03;;;7.18;100.00
9672;BME280;4874;43.568;27.824;2022-12-08T01:06:55;98934.97;;;7.33;100.00
9672;BME280;4874;43.568;27.824;2022-12-08T01:09:29;98938.34;;;7.35;100.00
9672;BME280;4874;43.568;27.824;2022-12-08T01:11:56;98934.59;;;7.38;100.00
9672;BME280;4874;43.568;27.824;2022-12-08T01:14:22;98932.66;;;7.40;100.00
9672;BME280;4874;43.568;27.824;2022-12-08T01:16:49;98923.16;;;7.05;100.00
9672;BME280;4874;43.568;27.824;2022-12-08T01:19:16;98930.78;;;7.31;100.00
9672;BME280;4874;43.568;27.824;2022-12-08T01:21:44;98934.19;;;7.22;100.00
9672;BME280;4874;43.568;27.824;2022-12-08T01:24:12;98927.88;;;7.34;100.00
9672;BME280;4874;43.568;27.824;2022-12-08T01:26:40;98925.75;;;7.28;100.00
9672;BME280;4874;43.568;27.824;2022-12-08T01:29:07;98928.25;;;7.29;100.00
9672;BME280;4874;43.568;27.824;2022-12-08T01:31:34;98933.97;;;7.45;100.00
9672;BME280;4874;43.568;27.824;2022-12-08T01:34:01;98929.59;;;7.24;100.00
9672;BME280;4874;43.568;27.824;2022-12-08T01:36:30;98916.38;;;7.35;100.00
9672;BME280;4874;43.568;27.824;2022-12-08T01:38:59;98926.63;;;7.17;100.00
9672;BME280;4874;43.568;27.824;2022-12-08T01:41:29;98926.47;;;7.18;100.00
9672;BME280;4874;43.568;27.824;2022-12-08T01:46:24;98925.03;;;7.26;100.00
9672;BME280;4874;43.568;27.824;2022-12-08T01:49:16;98919.75;;;7.26;100.00
9672;BME280;4874;43.568;27.824;2022-12-08T01:52:07;98920.34;;;7.29;100.00
9672;BME280;4874;43.568;27.824;2022-12-08T01:54:40;98929.59;;;7.24;100.00
9672;BME280;4874;43.568;27.824;2022-12-08T01:57:24;98918.41;;;7.31;100.00
9672;BME280;4874;43.568;27.824;2022-12-08T02:00:14;98917.81;;;7.28;100.00
9672;BME280;4874;43.568;27.824;2022-12-08T02:02:54;98891.84;;;7.12;100.00
9672;BME280;4874;43.568;27.824;2022-12-08T02:05:35;98916.81;;;7.40;100.00
9672;BME280;4874;43.568;27.824;2022-12-08T02:08:06;98920.84;;;7.55;100.00
9672;BME280;4874;43.568;27.824;2022-12-08T02:10:36;98919.53;;;7.18;100.00
9672;BME280;4874;43.568;27.824;2022-12-08T02:13:05;98925.94;;;7.04;100.00
9672;BME280;4874;43.568;27.824;2022-12-08T02:20:52;98928.22;;;6.97;100.00
9672;BME280;4874;43.568;27.824;2022-12-08T02:27:05;98933.09;;;7.13;100.00
9672;BME280;4874;43.568;27.824;2022-12-08T02:33:26;98943.09;;;7.09;100.00
9672;BME280;4874;43.568;27.824;2022-12-08T02:35:26;98918.88;;;6.82;100.00
9672;BME280;4874;43.568;27.824;2022-12-08T02:38:55;98941.38;;;7.08;100.00
9672;BME280;4874;43.568;27.824;2022-12-08T02:41:28;98941.25;;;7.10;100.00
9672;BME280;4874;43.568;27.824;2022-12-08T02:46:32;98934.47;;;6.96;100.00
9672;BME280;4874;43.568;27.824;2022-12-08T02:49:02;98950.03;;;6.99;100.00
9672;BME280;4874;43.568;27.824;2022-12-08T02:51:30;98950.50;;;7.15;100.00
9672;BME280;4874;43.568;27.824;2022-12-08T02:53:57;98946.53;;;7.10;100.00
9672;BME280;4874;43.568;27.824;2022-12-08T03:04:42;98960.72;;;6.98;100.00
9672;BME280;4874;43.568;27.824;2022-12-08T03:07:34;98967.44;;;6.91;100.00
9672;BME280;4874;43.568;27.824;2022-12-08T03:10:11;98911.25;;;6.35;100.00
9672;BME280;4874;43.568;27.824;2022-12-08T03:12:49;98982.47;;;6.68;100.00
9672;BME280;4874;43.568;27.824;2022-12-08T03:15:18;98983.50;;;6.55;100.00
9672;BME280;4874;43.568;27.824;2022-12-08T03:17:51;98988.09;;;6.53;100.00
9672;BME280;4874;43.568;27.824;2022-12-08T03:20:22;98994.03;;;6.22;100.00
9672;BME280;4874;43.568;27.824;2022-12-08T03:22:52;98996.38;;;6.03;100.00
9672;BME280;4874;43.568;27.824;2022-12-08T03:25:23;98956.16;;;6.23;100.00
9672;BME280;4874;43.568;27.824;2022-12-08T03:27:50;98989.00;;;6.30;100.00
9672;BME280;4874;43.568;27.824;2022-12-08T03:30:17;98989.78;;;6.65;100.00
9672;BME280;4874;43.568;27.824;2022-12-08T03:33:03;98982.34;;;6.70;100.00
9672;BME280;4874;43.568;27.824;2022-12-08T03:35:33;98991.31;;;7.00;100.00
9672;BME280;4874;43.568;27.824;2022-12-08T03:38:04;98987.13;;;6.65;100.00
9672;BME280;4874;43.568;27.824;2022-12-08T03:40:33;98944.53;;;6.36;100.00
9672;BME280;4874;43.568;27.824;2022-12-08T03:43:00;98989.41;;;6.91;100.00
9672;BME280;4874;43.568;27.824;2022-12-08T03:45:27;98974.53;;;6.79;100.00
9672;BME280;4874;43.568;27.824;2022-12-08T03:47:53;99013.16;;;6.91;100.00
9672;BME280;4874;43.568;27.824;2022-12-08T03:50:20;98997.53;;;6.99;100.00
9672;BME280;4874;43.568;27.824;2022-12-08T03:52:47;99011.59;;;7.11;100.00
9672;BME280;4874;43.568;27.824;2022-12-08T03:55:14;99004.13;;;7.05;100.00
9672;BME280;4874;43.568;27.824;2022-12-08T03:57:41;98971.16;;;6.77;100.00
9672;BME280;4874;43.568;27.824;2022-12-08T04:00:12;99016.38;;;6.95;100.00
9672;BME280;4874;43.568;27.824;2022-12-08T04:02:40;99020.00;;;6.94;100.00
9672;BME280;4874;43.568;27.824;2022-12-08T04:05:06;99020.47;;;6.99;100.00
9672;BME280;4874;43.568;27.824;2022-12-08T04:07:33;99012.78;;;7.07;100.00
9672;BME280;4874;43.568;27.824;2022-12-08T04:10:00;99006.19;;;7.01;100.00
9672;BME280;4874;43.568;27.824;2022-12-08T04:12:27;99017.94;;;7.08;100.00
9672;BME280;4874;43.568;27.824;2022-12-08T04:14:54;99025.38;;;6.92;100.00
9672;BME280;4874;43.568;27.824;2022-12-08T04:17:21;99028.50;;;6.97;100.00
9672;BME280;4874;43.568;27.824;2022-12-08T04:19:47;99024.66;;;7.01;100.00
9672;BME280;4874;43.568;27.824;2022-12-08T04:22:14;99016.97;;;7.21;100.00
9672;BME280;4874;43.568;27.824;2022-12-08T04:24:41;99032.19;;;7.17;100.00
9672;BME280;4874;43.568;27.824;2022-12-08T04:27:07;99051.41;;;7.19;100.00
9672;BME280;4874;43.568;27.824;2022-12-08T04:29:34;99026.66;;;7.20;100.00
9672;BME280;4874;43.568;27.824;2022-12-08T04:32:01;99031.97;;;7.09;100.00
9672;BME280;4874;43.568;27.824;2022-12-08T04:34:28;99038.69;;;7.24;100.00
9672;BME280;4874;43.568;27.824;2022-12-08T04:36:54;99041.31;;;7.13;100.00
9672;BME280;4874;43.568;27.824;2022-12-08T04:39:21;99033.78;;;6.86;100.00
9672;BME280;4874;43.568;27.824;2022-12-08T04:41:47;99038.22;;;6.75;100.00
9672;BME280;4874;43.568;27.824;2022-12-08T04:44:14;99045.38;;;6.62;100.00
9672;BME280;4874;43.568;27.824;2022-12-08T04:46:41;99050.13;;;6.35;100.00
9672;BME280;4874;43.568;27.824;2022-12-08T04:49:09;99057.19;;;6.34;100.00
9672;BME280;4874;43.568;27.824;2022-12-08T04:51:35;99064.31;;;6.10;100.00
9672;BME280;4874;43.568;27.824;2022-12-08T04:54:02;99065.91;;;6.00;100.00
9672;BME280;4874;43.568;27.824;2022-12-08T04:56:29;99062.75;;;5.84;100.00
9672;BME280;4874;43.568;27.824;2022-12-08T04:58:56;99064.13;;;5.77;100.00
9672;BME280;4874;43.568;27.824;2022-12-08T05:01:22;99058.91;;;5.64;100.00
9672;BME280;4874;43.568;27.824;2022-12-08T05:03:49;99062.25;;;5.66;100.00
9672;BME280;4874;43.568;27.824;2022-12-08T05:06:16;99064.41;;;5.61;100.00
9672;BME280;4874;43.568;27.824;2022-12-08T05:08:43;99069.75;;;5.36;100.00
9672;BME280;4874;43.568;27.824;2022-12-08T05:11:11;99072.56;;;5.33;100.00
9672;BME280;4874;43.568;27.824;2022-12-08T05:13:39;99081.22;;;5.35;100.00
9672;BME280;4874;43.568;27.824;2022-12-08T05:16:08;99073.66;;;5.31;100.00
9672;BME280;4874;43.568;27.824;2022-12-08T05:18:36;99026.47;;;4.92;100.00
9672;BME280;4874;43.568;27.824;2022-12-08T05:21:04;99052.69;;;4.93;100.00
9672;BME280;4874;43.568;27.824;2022-12-08T05:23:31;99066.28;;;5.23;100.00
9672;BME280;4874;43.568;27.824;2022-12-08T05:25:58;99072.94;;;5.16;100.00
9672;BME280;4874;43.568;27.824;2022-12-08T05:28:25;99070.75;;;5.10;100.00
9672;BME280;4874;43.568;27.824;2022-12-08T05:31:12;99081.25;;;5.23;100.00
9672;BME280;4874;43.568;27.824;2022-12-08T05:33:39;99083.78;;;5.12;100.00
9672;BME280;4874;43.568;27.824;2022-12-08T05:36:06;99093.16;;;5.16;100.00
9672;BME280;4874;43.568;27.824;2022-12-08T05:38:33;99083.16;;;5.08;100.00
9672;BME280;4874;43.568;27.824;2022-12-08T05:41:00;99085.41;;;6.56;100.00
9672;BME280;4874;43.568;27.824;2022-12-08T05:43:27;99081.28;;;7.20;100.00
9672;BME280;4874;43.568;27.824;2022-12-08T05:45:54;99035.09;;;5.30;100.00
9672;BME280;4874;43.568;27.824;2022-12-08T05:48:21;99088.22;;;5.60;100.00
9672;BME280;4874;43.568;27.824;2022-12-08T05:50:48;99050.72;;;5.20;100.00
9672;BME280;4874;43.568;27.824;2022-12-08T05:53:17;99102.38;;;5.34;100.00
9672;BME280;4874;43.568;27.824;2022-12-08T05:55:44;99110.38;;;5.45;100.00
9672;BME280;4874;43.568;27.824;2022-12-08T05:58:14;99109.47;;;5.21;100.00
9672;BME280;4874;43.568;27.824;2022-12-08T06:00:41;99114.91;;;5.18;100.00
9672;BME280;4874;43.568;27.824;2022-12-08T06:03:12;99107.34;;;5.01;100.00
9672;BME280;4874;43.568;27.824;2022-12-08T06:05:40;99103.34;;;5.08;100.00
9672;BME280;4874;43.568;27.824;2022-12-08T06:08:08;99120.00;;;4.96;100.00
9672;BME280;4874;43.568;27.824;2022-12-08T06:10:37;99077.72;;;4.73;100.00
9672;BME280;4874;43.568;27.824;2022-12-08T06:13:04;99092.03;;;5.07;100.00
9672;BME280;4874;43.568;27.824;2022-12-08T06:15:33;99112.22;;;5.07;100.00
9672;BME280;4874;43.568;27.824;2022-12-08T06:18:00;99123.38;;;4.98;100.00
9672;BME280;4874;43.568;27.824;2022-12-08T06:20:27;99129.06;;;4.92;100.00
9672;BME280;4874;43.568;27.824;2022-12-08T06:22:54;99127.66;;;5.36;100.00
9672;BME280;4874;43.568;27.824;2022-12-08T06:25:21;99131.09;;;5.37;100.00
9672;BME280;4874;43.568;27.824;2022-12-08T06:27:48;99128.81;;;5.20;100.00
9672;BME280;4874;43.568;27.824;2022-12-08T06:30:15;99131.97;;;5.25;100.00
9672;BME280;4874;43.568;27.824;2022-12-08T06:32:42;99122.69;;;5.32;100.00
9672;BME280;4874;43.568;27.824;2022-12-08T06:35:09;99118.25;;;5.45;100.00
9672;BME280;4874;43.568;27.824;2022-12-08T06:37:36;99112.56;;;5.38;100.00
9672;BME280;4874;43.568;27.824;2022-12-08T06:40:03;99108.63;;;5.20;100.00
9672;BME280;4874;43.568;27.824;2022-12-08T06:42:30;99112.00;;;5.10;100.00
9672;BME280;4874;43.568;27.824;2022-12-08T06:45:13;99123.13;;;5.26;100.00
9672;BME280;4874;43.568;27.824;2022-12-08T06:47:41;99127.53;;;5.38;100.00
9672;BME280;4874;43.568;27.824;2022-12-08T06:50:09;99136.81;;;5.31;100.00
9672;BME280;4874;43.568;27.824;2022-12-08T06:52:36;99099.75;;;5.21;100.00
9672;BME280;4874;43.568;27.824;2022-12-08T06:55:12;99144.59;;;5.20;100.00
9672;BME280;4874;43.568;27.824;2022-12-08T06:57:59;99138.81;;;5.15;100.00
9672;BME280;4874;43.568;27.824;2022-12-08T07:00:26;99139.97;;;5.23;100.00
9672;BME280;4874;43.568;27.824;2022-12-08T07:02:52;99143.00;;;5.30;100.00
9672;BME280;4874;43.568;27.824;2022-12-08T07:05:19;99147.22;;;5.45;100.00
9672;BME280;4874;43.568;27.824;2022-12-08T07:07:46;99147.13;;;5.34;100.00
9672;BME280;4874;43.568;27.824;2022-12-08T07:10:13;99153.00;;;5.37;100.00
9672;BME280;4874;43.568;27.824;2022-12-08T07:12:39;99164.72;;;5.21;100.00
9672;BME280;4874;43.568;27.824;2022-12-08T07:15:07;99167.13;;;5.11;100.00
9672;BME280;4874;43.568;27.824;2022-12-08T07:17:33;99169.31;;;5.30;100.00
9672;BME280;4874;43.568;27.824;2022-12-08T07:20:00;99186.59;;;5.21;100.00
9672;BME280;4874;43.568;27.824;2022-12-08T07:22:27;99178.28;;;5.27;100.00
9672;BME280;4874;43.568;27.824;2022-12-08T07:24:54;99162.72;;;4.99;100.00
9672;BME280;4874;43.568;27.824;2022-12-08T07:27:21;99165.84;;;4.79;100.00
9672;BME280;4874;43.568;27.824;2022-12-08T07:29:47;99159.66;;;4.67;100.00
9672;BME280;4874;43.568;27.824;2022-12-08T07:32:14;99167.56;;;5.05;100.00
9672;BME280;4874;43.568;27.824;2022-12-08T07:34:41;99166.09;;;5.01;100.00
9672;BME280;4874;43.568;27.824;2022-12-08T07:37:08;99160.72;;;5.28;100.00
9672;BME280;4874;43.568;27.824;2022-12-08T07:39:34;99167.53;;;5.43;100.00
9672;BME280;4874;43.568;27.824;2022-12-08T07:42:01;99172.69;;;5.32;100.00
9672;BME280;4874;43.568;27.824;2022-12-08T07:44:28;99170.91;;;5.45;100.00
9672;BME280;4874;43.568;27.824;2022-12-08T07:46:55;99172.78;;;5.55;100.00
9672;BME280;4874;43.568;27.824;2022-12-08T07:49:21;99189.00;;;4.99;100.00
9672;BME280;4874;43.568;27.824;2022-12-08T07:51:48;99189.56;;;5.29;100.00
9672;BME280;4874;43.568;27.824;2022-12-08T07:54:15;99168.47;;;5.54;100.00
9672;BME280;4874;43.568;27.824;2022-12-08T07:56:42;99176.53;;;5.64;100.00
9672;BME280;4874;43.568;27.824;2022-12-08T07:59:08;99176.38;;;5.54;100.00
9672;BME280;4874;43.568;27.824;2022-12-08T08:01:35;99170.59;;;5.49;100.00
9672;BME280;4874;43.568;27.824;2022-12-08T08:04:03;99173.28;;;5.85;100.00
9672;BME280;4874;43.568;27.824;2022-12-08T08:06:32;99168.25;;;5.82;100.00
9672;BME280;4874;43.568;27.824;2022-12-08T08:08:59;99154.09;;;5.71;100.00
9672;BME280;4874;43.568;27.824;2022-12-08T08:11:26;99146.28;;;5.94;100.00
9672;BME280;4874;43.568;27.824;2022-12-08T08:13:52;99154.50;;;6.14;100.00
9672;BME280;4874;43.568;27.824;2022-12-08T08:16:19;99155.59;;;6.11;100.00
9672;BME280;4874;43.568;27.824;2022-12-08T08:18:50;99160.31;;;6.19;100.00
9672;BME280;4874;43.568;27.824;2022-12-08T08:21:18;99147.59;;;6.00;100.00
9672;BME280;4874;43.568;27.824;2022-12-08T08:24:05;99149.75;;;6.19;100.00
9672;BME280;4874;43.568;27.824;2022-12-08T08:26:32;99116.69;;;6.60;100.00
9672;BME280;4874;43.568;27.824;2022-12-08T08:28:59;99139.56;;;6.94;100.00
9672;BME280;4874;43.568;27.824;2022-12-08T08:31:26;99142.84;;;6.63;100.00
9672;BME280;4874;43.568;27.824;2022-12-08T08:33:55;99141.22;;;6.84;100.00
9672;BME280;4874;43.568;27.824;2022-12-08T08:36:22;99133.91;;;6.42;100.00
9672;BME280;4874;43.568;27.824;2022-12-08T08:38:50;99139.16;;;6.66;100.00
9672;BME280;4874;43.568;27.824;2022-12-08T08:41:17;99133.88;;;6.66;100.00
9672;BME280;4874;43.568;27.824;2022-12-08T08:43:44;99146.25;;;6.76;100.00
9672;BME280;4874;43.568;27.824;2022-12-08T08:46:10;99149.06;;;6.51;100.00
9672;BME280;4874;43.568;27.824;2022-12-08T08:48:37;99151.72;;;7.19;100.00
9672;BME280;4874;43.568;27.824;2022-12-08T08:51:12;99147.78;;;7.25;100.00
9672;BME280;4874;43.568;27.824;2022-12-08T08:53:40;99149.75;;;6.88;100.00
9672;BME280;4874;43.568;27.824;2022-12-08T08:56:11;99152.63;;;6.96;100.00
9672;BME280;4874;43.568;27.824;2022-12-08T08:58:39;99153.06;;;7.25;100.00
9672;BME280;4874;43.568;27.824;2022-12-08T09:01:06;99152.81;;;7.28;100.00
9672;BME280;4874;43.568;27.824;2022-12-08T09:03:32;99151.16;;;7.27;100.00
9672;BME280;4874;43.568;27.824;2022-12-08T09:05:59;99154.34;;;7.08;100.00
9672;BME280;4874;43.568;27.824;2022-12-08T09:08:26;99155.22;;;7.20;100.00
9672;BME280;4874;43.568;27.824;2022-12-08T09:10:53;99152.91;;;7.04;100.00
9672;BME280;4874;43.568;27.824;2022-12-08T09:13:20;99152.81;;;7.28;100.00
9672;BME280;4874;43.568;27.824;2022-12-08T09:15:47;99136.47;;;7.45;100.00
9672;BME280;4874;43.568;27.824;2022-12-08T09:18:14;99143.16;;;7.82;100.00
9672;BME280;4874;43.568;27.824;2022-12-08T09:20:41;99131.06;;;7.79;100.00
9672;BME280;4874;43.568;27.824;2022-12-08T09:23:08;99133.63;;;7.37;100.00
9672;BME280;4874;43.568;27.824;2022-12-08T09:25:34;99077.94;;;7.18;100.00
9672;BME280;4874;43.568;27.824;2022-12-08T09:28:01;99134.03;;;7.75;100.00
9672;BME280;4874;43.568;27.824;2022-12-08T09:30:28;99121.00;;;7.51;100.00
9672;BME280;4874;43.568;27.824;2022-12-08T09:32:54;99142.25;;;7.50;100.00
9672;BME280;4874;43.568;27.824;2022-12-08T09:35:21;99130.75;;;7.51;100.00
9672;BME280;4874;43.568;27.824;2022-12-08T09:37:48;99138.75;;;7.60;100.00
9672;BME280;4874;43.568;27.824;2022-12-08T09:40:16;99126.03;;;7.76;100.00
9672;BME280;4874;43.568;27.824;2022-12-08T09:42:56;99129.00;;;7.83;100.00
9672;BME280;4874;43.568;27.824;2022-12-08T09:45:29;99095.97;;;7.77;100.00
9672;BME280;4874;43.568;27.824;2022-12-08T09:48:06;99121.22;;;8.24;100.00
9672;BME280;4874;43.568;27.824;2022-12-08T09:53:33;99122.06;;;8.13;100.00
9672;BME280;4874;43.568;27.824;2022-12-08T10:01:25;99128.53;;;8.52;100.00
9672;BME280;4874;43.568;27.824;2022-12-08T10:03:53;99131.38;;;8.40;100.00
9672;BME280;4874;43.568;27.824;2022-12-08T10:12:45;99110.59;;;8.35;100.00
9672;BME280;4874;43.568;27.824;2022-12-08T10:17:55;99099.31;;;8.54;100.00
9672;BME280;4874;43.568;27.824;2022-12-08T10:20:27;99109.91;;;8.74;100.00
9672;BME280;4874;43.568;27.824;2022-12-08T10:23:28;99104.97;;;8.60;100.00
9672;BME280;4874;43.568;27.824;2022-12-08T10:26:16;99103.00;;;8.62;100.00
9672;BME280;4874;43.568;27.824;2022-12-08T10:28:43;99093.56;;;8.49;100.00
9672;BME280;4874;43.568;27.824;2022-12-08T10:31:23;99059.16;;;8.28;100.00
9672;BME280;4874;43.568;27.824;2022-12-08T10:34:00;99094.41;;;8.49;100.00
9672;BME280;4874;43.568;27.824;2022-12-08T10:36:52;99092.22;;;8.54;100.00
9672;BME280;4874;43.568;27.824;2022-12-08T10:39:36;99092.53;;;8.81;100.00
9672;BME280;4874;43.568;27.824;2022-12-08T10:44:59;99035.50;;;8.47;100.00
9672;BME280;4874;43.568;27.824;2022-12-08T10:47:28;99089.34;;;9.08;100.00
9672;BME280;4874;43.568;27.824;2022-12-08T10:52:54;99074.09;;;8.91;100.00
9672;BME280;4874;43.568;27.824;2022-12-08T10:55:22;99073.75;;;9.05;100.00
9672;BME280;4874;43.568;27.824;2022-12-08T10:57:48;99067.94;;;9.20;100.00
9672;BME280;4874;43.568;27.824;2022-12-08T11:00:26;99067.94;;;9.20;100.00
9672;BME280;4874;43.568;27.824;2022-12-08T11:03:02;99066.50;;;9.46;100.00
9672;BME280;4874;43.568;27.824;2022-12-08T11:05:34;99054.00;;;9.18;100.00
9672;BME280;4874;43.568;27.824;2022-12-08T11:08:03;99030.56;;;9.14;100.00
9672;BME280;4874;43.568;27.824;2022-12-08T11:10:33;99040.78;;;9.28;100.00
9672;BME280;4874;43.568;27.824;2022-12-08T11:13:04;99043.06;;;9.51;100.00
9672;BME280;4874;43.568;27.824;2022-12-08T11:15:34;99048.63;;;8.99;100.00
9672;BME280;4874;43.568;27.824;2022-12-08T11:18:17;99045.28;;;9.07;100.00
9672;BME280;4874;43.568;27.824;2022-12-08T11:20:46;99046.06;;;9.18;100.00
9672;BME280;4874;43.568;27.824;2022-12-08T11:23:20;99036.34;;;9.38;100.00
9672;BME280;4874;43.568;27.824;2022-12-08T11:25:48;99033.78;;;9.17;100.00
9672;BME280;4874;43.568;27.824;2022-12-08T11:28:22;99027.13;;;9.32;100.00
9672;BME280;4874;43.568;27.824;2022-12-08T11:30:57;99021.00;;;9.32;100.00
9672;BME280;4874;43.568;27.824;2022-12-08T11:33:27;98983.03;;;9.12;100.00
9672;BME280;4874;43.568;27.824;2022-12-08T11:36:01;99021.88;;;9.51;100.00
9672;BME280;4874;43.568;27.824;2022-12-08T11:38:30;99031.81;;;9.59;100.00
9672;BME280;4874;43.568;27.824;2022-12-08T11:41:05;99028.88;;;9.62;100.00
9672;BME280;4874;43.568;27.824;2022-12-08T11:43:57;99024.47;;;9.82;100.00
9672;BME280;4874;43.568;27.824;2022-12-08T11:46:41;99031.16;;;9.76;100.00
9672;BME280;4874;43.568;27.824;2022-12-08T11:49:11;99030.03;;;9.79;100.00
9672;BME280;4874;43.568;27.824;2022-12-08T11:54:10;99021.38;;;9.86;100.00
9672;BME280;4874;43.568;27.824;2022-12-08T11:56:48;99016.91;;;9.58;100.00
9672;BME280;4874;43.568;27.824;2022-12-08T11:59:30;99013.41;;;9.67;100.00
9672;BME280;4874;43.568;27.824;2022-12-08T12:01:59;99006.59;;;9.84;100.00
9672;BME280;4874;43.568;27.824;2022-12-08T12:04:41;99005.19;;;9.80;100.00
9672;BME280;4874;43.568;27.824;2022-12-08T12:16:17;99009.13;;;9.85;100.00
9672;BME280;4874;43.568;27.824;2022-12-08T12:18:51;99015.25;;;10.05;100.00
9672;BME280;4874;43.568;27.824;2022-12-08T12:21:29;99000.59;;;10.01;100.00
9672;BME280;4874;43.568;27.824;2022-12-08T12:24:24;99014.72;;;10.11;100.00
9672;BME280;4874;43.568;27.824;2022-12-08T12:26:56;99007.31;;;9.95;100.00
9672;BME280;4874;43.568;27.824;2022-12-08T12:29:27;99001.88;;;10.16;100.00
9672;BME280;4874;43.568;27.824;2022-12-08T12:31:57;99002.56;;;10.27;100.00
9672;BME280;4874;43.568;27.824;2022-12-08T12:34:29;98998.91;;;10.38;100.00
9672;BME280;4874;43.568;27.824;2022-12-08T12:39:27;98990.97;;;10.38;100.00
9672;BME280;4874;43.568;27.824;2022-12-08T12:41:57;98999.91;;;10.37;100.00
9672;BME280;4874;43.568;27.824;2022-12-08T12:46:57;99004.13;;;10.11;100.00
9672;BME280;4874;43.568;27.824;2022-12-08T12:54:41;99004.38;;;10.27;100.00
9672;BME280;4874;43.568;27.824;2022-12-08T13:05:26;99008.06;;;10.72;100.00
9672;BME280;4874;43.568;27.824;2022-12-08T13:08:00;98999.69;;;10.67;100.00
9672;BME280;4874;43.568;27.824;2022-12-08T13:10:28;99002.50;;;10.65;100.00
9672;BME280;4874;43.568;27.824;2022-12-08T13:15:37;99006.84;;;10.57;100.00
9672;BME280;4874;43.568;27.824;2022-12-08T13:18:05;99000.25;;;10.61;100.00
9672;BME280;4874;43.568;27.824;2022-12-08T13:20:41;99007.69;;;10.48;100.00
9672;BME280;4874;43.568;27.824;2022-12-08T13:23:12;99012.00;;;10.49;100.00
9672;BME280;4874;43.568;27.824;2022-12-08T13:25:51;99015.50;;;10.49;100.00
9672;BME280;4874;43.568;27.824;2022-12-08T13:30:47;99009.25;;;10.41;100.00
9672;BME280;4874;43.568;27.824;2022-12-08T13:33:24;98999.75;;;10.38;100.00
9672;BME280;4874;43.568;27.824;2022-12-08T13:36:25;99008.94;;;10.44;100.00
9672;BME280;4874;43.568;27.824;2022-12-08T13:38:55;98907.09;;;9.80;100.00
9672;BME280;4874;43.568;27.824;2022-12-08T13:41:33;99017.78;;;10.25;100.00
9672;BME280;4874;43.568;27.824;2022-12-08T13:44:20;99025.75;;;10.35;100.00
9672;BME280;4874;43.568;27.824;2022-12-08T13:47:14;99029.78;;;10.29;100.00
9672;BME280;4874;43.568;27.824;2022-12-08T13:50:09;99025.88;;;10.24;100.00
9672;BME280;4874;43.568;27.824;2022-12-08T13:53:00;98994.06;;;10.14;100.00
9672;BME280;4874;43.568;27.824;2022-12-08T13:55:51;99024.78;;;10.26;100.00
9672;BME280;4874;43.568;27.824;2022-12-08T13:58:40;99023.34;;;10.32;100.00
9672;BME280;4874;43.568;27.824;2022-12-08T14:03:54;99032.00;;;10.34;100.00
9672;BME280;4874;43.568;27.824;2022-12-08T14:06:47;99034.25;;;10.29;100.00
9672;BME280;4874;43.568;27.824;2022-12-08T14:09:20;99037.31;;;10.34;100.00
9672;BME280;4874;43.568;27.824;2022-12-08T14:11:56;99036.91;;;10.29;100.00
9672;BME280;4874;43.568;27.824;2022-12-08T14:14:32;99034.56;;;10.16;100.00
9672;BME280;4874;43.568;27.824;2022-12-08T14:17:24;99044.31;;;10.35;100.00
9672;BME280;4874;43.568;27.824;2022-12-08T14:19:55;99044.72;;;10.30;100.00
9672;BME280;4874;43.568;27.824;2022-12-08T14:22:22;99038.47;;;10.31;100.00
9672;BME280;4874;43.568;27.824;2022-12-08T14:24:52;99046.28;;;10.33;100.00
9672;BME280;4874;43.568;27.824;2022-12-08T14:27:24;99036.22;;;10.27;100.00
9672;BME280;4874;43.568;27.824;2022-12-08T14:29:58;99007.34;;;10.14;100.00
9672;BME280;4874;43.568;27.824;2022-12-08T14:35:01;99035.38;;;10.36;100.00
9672;BME280;4874;43.568;27.824;2022-12-08T14:37:41;99024.19;;;10.04;100.00
9672;BME280;4874;43.568;27.824;2022-12-08T14:40:19;99037.72;;;10.39;100.00
9672;BME280;4874;43.568;27.824;2022-12-08T14:53:41;99046.56;;;10.30;100.00
9672;BME280;4874;43.568;27.824;2022-12-08T15:01:29;99027.28;;;10.18;100.00
9672;BME280;4874;43.568;27.824;2022-12-08T15:04:01;99029.25;;;10.16;100.00
9672;BME280;4874;43.568;27.824;2022-12-08T15:06:28;99040.94;;;10.23;100.00
9672;BME280;4874;43.568;27.824;2022-12-08T15:08:57;99027.56;;;10.34;100.00
9672;BME280;4874;43.568;27.824;2022-12-08T15:11:31;99033.72;;;10.35;100.00
9672;BME280;4874;43.568;27.824;2022-12-08T15:13:58;99019.63;;;10.25;100.00
9672;BME280;4874;43.568;27.824;2022-12-08T15:21:42;99034.66;;;10.34;100.00